createdAt,value
2018-06-04T00:01:59.623Z,101486.75
2018-06-04T00:04:27.089Z,101472.49
2018-06-04T00:06:54.493Z,101484.44
2018-06-04T00:09:21.923Z,101482.53
2018-06-04T00:11:49.409Z,101480.00
2018-06-04T00:14:16.792Z,101475.47
2018-06-04T00:16:44.254Z,101472.10
2018-06-04T00:19:11.708Z,101468.73
2018-06-04T00:21:39.090Z,101472.45
2018-06-04T00:24:06.442Z,101468.91
2018-06-04T00:26:33.919Z,101470.41
2018-06-04T00:29:01.257Z,101474.78
2018-06-04T00:31:28.727Z,101474.44
2018-06-04T00:33:56.057Z,101477.98
2018-06-04T00:36:23.501Z,101478.31
2018-06-04T00:38:50.878Z,101482.67
2018-06-04T00:41:18.277Z,101483.53
2018-06-04T00:43:45.674Z,101481.19
2018-06-04T00:46:13.098Z,101475.45
2018-06-04T00:48:40.494Z,101487.89
2018-06-04T00:51:07.953Z,101494.30
2018-06-04T00:53:35.397Z,101491.27
2018-06-04T00:56:13.898Z,101492.64
2018-06-04T00:58:41.289Z,101494.16
2018-06-04T01:01:08.751Z,101492.48
2018-06-04T01:03:36.143Z,101494.50
2018-06-04T01:06:03.549Z,101489.61
2018-06-04T01:08:30.918Z,101491.27
2018-06-04T01:10:58.382Z,101492.64
2018-06-04T01:13:25.884Z,101482.05
2018-06-04T01:15:53.254Z,101479.41
2018-06-04T01:18:21.077Z,101484.23
2018-06-04T01:20:48.521Z,101488.48
2018-06-04T01:23:16.049Z,101486.08
2018-06-04T01:25:43.605Z,101489.61
2018-06-04T01:28:11.035Z,101465.38
2018-06-04T01:30:38.504Z,101490.28
2018-06-04T01:33:07.227Z,101491.96
2018-06-04T01:35:34.894Z,101490.27
2018-06-04T01:38:02.311Z,101488.23
2018-06-04T01:40:29.796Z,101475.62
2018-06-04T01:42:57.139Z,101478.02
2018-06-04T01:45:24.529Z,101472.62
2018-06-04T01:47:51.937Z,101476.03
2018-06-04T01:50:19.302Z,101454.66
2018-06-04T01:52:46.747Z,101470.39
2018-06-04T01:55:14.128Z,101468.56
2018-06-04T01:57:42.088Z,101467.21
2018-06-04T02:00:10.331Z,101464.86
2018-06-04T02:02:38.533Z,101457.61
2018-06-04T02:05:05.991Z,101450.06
2018-06-04T02:07:33.468Z,101455.44
2018-06-04T02:10:00.830Z,101454.25
2018-06-04T02:12:28.252Z,101448.39
2018-06-04T02:14:55.625Z,101453.22
2018-06-04T02:17:23.164Z,101450.87
2018-06-04T02:19:50.537Z,101452.23
2018-06-04T02:22:17.913Z,101444.81
2018-06-04T02:24:45.401Z,101445.97
2018-06-04T02:27:12.821Z,101446.73
2018-06-04T02:29:40.232Z,101445.17
2018-06-04T02:32:08.491Z,101444.50
2018-06-04T02:34:35.980Z,101440.78
2018-06-04T02:37:04.060Z,101439.25
2018-06-04T02:39:31.447Z,101445.12
2018-06-04T02:41:58.785Z,101446.33
2018-06-04T02:44:26.554Z,101451.17
2018-06-04T02:46:54.015Z,101446.96
2018-06-04T02:49:22.313Z,101457.36
2018-06-04T02:51:49.794Z,101456.22
2018-06-04T02:54:17.170Z,101462.45
2018-06-04T02:56:44.694Z,101454.88
2018-06-04T02:59:12.161Z,101455.39
2018-06-04T03:01:39.522Z,101461.56
2018-06-04T03:04:06.903Z,101452.35
2018-06-04T03:06:34.754Z,101451.45
2018-06-04T03:09:02.391Z,101446.98
2018-06-04T03:11:29.738Z,101447.81
2018-06-04T03:13:57.194Z,101442.95
2018-06-04T03:16:24.591Z,101438.06
2018-06-04T03:18:52.624Z,101430.08
2018-06-04T03:21:20.002Z,101428.89
2018-06-04T03:23:47.389Z,101429.23
2018-06-04T03:26:14.803Z,101426.83
2018-06-04T03:28:42.266Z,101425.25
2018-06-04T03:31:10.448Z,101422.08
2018-06-04T03:33:38.032Z,101425.84
2018-06-04T03:36:06.146Z,101425.66
2018-06-04T03:38:33.563Z,101412.90
2018-06-04T03:41:01.096Z,101423.17
2018-06-04T03:43:28.516Z,101422.14
2018-06-04T03:45:55.912Z,101424.39
2018-06-04T03:48:23.610Z,101418.22
2018-06-04T03:50:51.875Z,101419.52
2018-06-04T03:53:19.318Z,101414.31
2018-06-04T03:55:46.700Z,101415.48
2018-06-04T03:58:14.070Z,101410.79
2018-06-04T04:00:42.241Z,101405.22
2018-06-04T04:03:09.706Z,101404.92
2018-06-04T04:05:37.083Z,101404.77
2018-06-04T04:08:04.480Z,101399.02
2018-06-04T04:10:36.055Z,101407.59
2018-06-04T04:13:03.462Z,101412.83
2018-06-04T04:15:30.861Z,101408.78
2018-06-04T04:17:58.283Z,101400.89
2018-06-04T04:20:26.022Z,101401.92
2018-06-04T04:22:53.463Z,101407.40
2018-06-04T04:25:20.853Z,101404.05
2018-06-04T04:27:48.237Z,101390.27
2018-06-04T04:30:15.641Z,101396.64
2018-06-04T04:32:43.113Z,101402.70
2018-06-04T04:35:10.492Z,101403.61
2018-06-04T04:37:37.841Z,101412.70
2018-06-04T04:40:05.260Z,101418.02
2018-06-04T04:42:32.662Z,101417.35
2018-06-04T04:45:00.026Z,101415.66
2018-06-04T04:47:27.463Z,101421.91
2018-06-04T04:49:55.235Z,101421.84
2018-06-04T04:52:22.972Z,101428.03
2018-06-04T04:54:50.904Z,101423.64
2018-06-04T04:57:18.632Z,101417.47
2018-06-04T04:59:46.429Z,101415.48
2018-06-04T05:02:13.923Z,101412.61
2018-06-04T05:04:42.063Z,101412.90
2018-06-04T05:07:10.283Z,101411.48
2018-06-04T05:09:37.647Z,101410.52
2018-06-04T05:12:05.068Z,101409.22
2018-06-04T05:14:32.559Z,101409.39
2018-06-04T05:16:59.992Z,101393.16
2018-06-04T05:19:27.533Z,101415.58
2018-06-04T05:21:55.109Z,101404.73
2018-06-04T05:24:22.567Z,101401.01
2018-06-04T05:26:50.476Z,101406.02
2018-06-04T05:29:18.306Z,101400.89
2018-06-04T05:31:45.759Z,101398.75
2018-06-04T05:34:13.417Z,101397.07
2018-06-04T05:36:40.818Z,101400.09
2018-06-04T05:39:09.440Z,101400.54
2018-06-04T05:41:36.810Z,101405.75
2018-06-04T05:44:04.414Z,101400.61
2018-06-04T05:46:31.961Z,101405.88
2018-06-04T05:48:59.439Z,101401.20
2018-06-04T05:51:26.895Z,101401.91
2018-06-04T05:53:54.485Z,101402.28
2018-06-04T05:56:22.179Z,101383.94
2018-06-04T05:58:49.898Z,101393.56
2018-06-04T06:01:17.420Z,101396.61
2018-06-04T06:03:44.801Z,101397.81
2018-06-04T06:06:12.164Z,101388.56
2018-06-04T06:08:39.735Z,101393.92
2018-06-04T06:11:07.211Z,101389.89
2018-06-04T06:13:34.621Z,101387.36
2018-06-04T06:16:02.340Z,101384.52
2018-06-04T06:18:29.764Z,101384.70
2018-06-04T06:20:57.814Z,101381.34
2018-06-04T06:23:25.251Z,101388.05
2018-06-04T06:25:52.962Z,101375.38
2018-06-04T06:28:20.539Z,101374.61
2018-06-04T06:30:47.998Z,101374.80
2018-06-04T06:33:16.233Z,101376.34
2018-06-04T06:35:43.616Z,101378.58
2018-06-04T06:38:11.359Z,101382.70
2018-06-04T06:40:39.065Z,101386.73
2018-06-04T06:43:06.507Z,101388.64
2018-06-04T06:45:34.594Z,101386.44
2018-06-04T06:48:01.999Z,101385.34
2018-06-04T06:50:29.579Z,101383.61
2018-06-04T06:52:56.998Z,101390.08
2018-06-04T06:55:24.449Z,101389.25
2018-06-04T06:57:52.085Z,101396.33
2018-06-04T07:00:19.554Z,101397.39
2018-06-04T07:02:47.445Z,101384.56
2018-06-04T07:05:14.898Z,101389.53
2018-06-04T07:07:42.347Z,101395.56
2018-06-04T07:10:10.780Z,101388.41
2018-06-04T07:12:38.494Z,101388.68
2018-06-04T07:15:05.898Z,101393.30
2018-06-04T07:17:33.332Z,101393.63
2018-06-04T07:20:00.754Z,101397.23
2018-06-04T07:22:28.285Z,101393.29
2018-06-04T07:24:55.765Z,101400.46
2018-06-04T07:27:23.156Z,101395.75
2018-06-04T07:29:50.625Z,101398.52
2018-06-04T07:32:18.148Z,101399.46
2018-06-04T07:34:46.647Z,101400.03
2018-06-04T07:37:14.417Z,101403.55
2018-06-04T07:39:41.968Z,101402.74
2018-06-04T07:42:09.417Z,101401.84
2018-06-04T07:44:36.810Z,101402.09
2018-06-04T07:47:04.198Z,101405.84
2018-06-04T07:49:31.607Z,101408.19
2018-06-04T07:51:59.048Z,101409.22
2018-06-04T07:54:27.152Z,101403.48
2018-06-04T07:56:54.579Z,101403.11
2018-06-04T07:59:22.182Z,101397.75
2018-06-04T08:01:49.643Z,101395.94
2018-06-04T08:04:17.055Z,101395.23
2018-06-04T08:06:44.568Z,101399.66
2018-06-04T08:09:12.269Z,101397.73
2018-06-04T08:11:39.933Z,101398.81
2018-06-04T08:14:07.560Z,101394.73
2018-06-04T08:16:34.924Z,101393.14
2018-06-04T08:19:02.343Z,101396.95
2018-06-04T08:21:29.911Z,101397.88
2018-06-04T08:23:57.370Z,101403.88
2018-06-04T08:26:24.757Z,101397.52
2018-06-04T08:28:52.155Z,101397.80
2018-06-04T08:31:19.514Z,101396.44
2018-06-04T08:33:46.952Z,101395.52
2018-06-04T08:36:14.327Z,101400.25
2018-06-04T08:38:41.733Z,101397.98
2018-06-04T08:41:09.133Z,101395.95
2018-06-04T08:43:36.757Z,101402.35
2018-06-04T08:46:04.529Z,101403.08
2018-06-04T08:48:31.927Z,101402.87
2018-06-04T08:50:59.326Z,101407.77
2018-06-04T08:53:26.779Z,101400.36
2018-06-04T08:55:54.318Z,101402.59
2018-06-04T08:58:21.806Z,101401.23
2018-06-04T09:00:49.798Z,101399.37
2018-06-04T09:03:17.319Z,101399.28
2018-06-04T09:05:44.870Z,101400.48
2018-06-04T09:08:12.323Z,101401.56
2018-06-04T09:10:39.886Z,101402.69
2018-06-04T09:13:07.394Z,101403.88
2018-06-04T09:15:34.879Z,101407.74
2018-06-04T09:18:02.315Z,101406.38
2018-06-04T09:20:29.909Z,101413.91
2018-06-04T09:22:57.404Z,101413.34
2018-06-04T09:25:24.877Z,101418.69
2018-06-04T09:27:52.280Z,101418.98
2018-06-04T09:30:19.977Z,101410.25
2018-06-04T09:32:47.476Z,101412.23
2018-06-04T09:35:14.924Z,101408.12
2018-06-04T09:37:42.443Z,101411.27
2018-06-04T09:40:10.000Z,101410.13
2018-06-04T09:42:37.495Z,101414.61
2018-06-04T09:45:04.918Z,101409.69
2018-06-04T09:48:36.508Z,101408.66
2018-06-04T09:51:04.037Z,101404.91
2018-06-04T09:53:31.697Z,101411.88
2018-06-04T09:55:59.154Z,101409.48
2018-06-04T09:58:26.574Z,101410.15
2018-06-04T10:00:54.017Z,101399.88
2018-06-04T10:03:21.428Z,101403.06
2018-06-04T10:05:49.395Z,101396.58
2018-06-04T10:08:16.860Z,101394.38
2018-06-04T10:10:44.295Z,101395.19
2018-06-04T10:13:11.776Z,101396.14
2018-06-04T10:15:39.186Z,101392.91
2018-06-04T10:18:06.918Z,101393.11
2018-06-04T10:20:34.337Z,101392.67
2018-06-04T10:23:01.870Z,101395.66
2018-06-04T10:25:29.354Z,101389.28
2018-06-04T10:27:56.792Z,101389.05
2018-06-04T10:30:24.236Z,101398.59
2018-06-04T10:32:51.684Z,101389.47
2018-06-04T10:35:19.080Z,101398.22
2018-06-04T10:37:46.493Z,101391.45
2018-06-04T10:40:13.921Z,101393.52
2018-06-04T10:42:41.361Z,101394.84
2018-06-04T10:45:08.886Z,101392.66
2018-06-04T10:47:36.535Z,101400.05
2018-06-04T10:50:03.918Z,101394.73
2018-06-04T10:52:31.332Z,101394.32
2018-06-04T10:54:58.960Z,101393.69
2018-06-04T10:57:26.433Z,101384.30
2018-06-04T10:59:53.925Z,101384.66
2018-06-04T11:02:21.384Z,101385.36
2018-06-04T11:04:48.804Z,101384.41
2018-06-04T11:07:16.195Z,101378.63
2018-06-04T11:09:43.602Z,101377.39
2018-06-04T11:12:11.054Z,101388.52
2018-06-04T11:14:38.461Z,101377.73
2018-06-04T11:17:05.899Z,101377.88
2018-06-04T11:19:33.295Z,101378.51
2018-06-04T11:22:00.682Z,101374.97
2018-06-04T11:24:28.749Z,101375.56
2018-06-04T11:26:56.258Z,101377.58
2018-06-04T11:29:23.670Z,101372.34
2018-06-04T11:31:51.686Z,101367.12
2018-06-04T11:34:19.148Z,101372.25
2018-06-04T11:36:46.594Z,101369.05
2018-06-04T11:39:14.105Z,101364.52
2018-06-04T11:41:41.583Z,101365.00
2018-06-04T11:44:09.016Z,101357.45
2018-06-04T11:46:36.487Z,101363.24
2018-06-04T11:49:03.909Z,101359.47
2018-06-04T11:51:31.492Z,101355.23
2018-06-04T11:53:58.954Z,101358.05
2018-06-04T11:56:26.567Z,101357.08
2018-06-04T11:58:54.173Z,101356.70
2018-06-04T12:01:21.670Z,101353.77
2018-06-04T12:03:49.430Z,101353.41
2018-06-04T12:06:16.977Z,101352.28
2018-06-04T12:08:45.187Z,101349.25
2018-06-04T12:11:12.545Z,101350.91
2018-06-04T12:13:39.936Z,101348.63
2018-06-04T12:16:07.277Z,101354.00
2018-06-04T12:18:34.647Z,101349.93
2018-06-04T12:21:02.031Z,101350.75
2018-06-04T12:23:29.442Z,101355.74
2018-06-04T12:25:56.850Z,101354.83
2018-06-04T12:28:24.369Z,101344.69
2018-06-04T12:30:51.845Z,101347.64
2018-06-04T12:33:19.924Z,101346.75
2018-06-04T12:35:47.380Z,101346.93
2018-06-04T12:38:14.751Z,101344.27
2018-06-04T12:40:42.122Z,101348.08
2018-06-04T12:43:10.253Z,101354.28
2018-06-04T12:45:39.009Z,101349.73
2018-06-04T12:48:06.505Z,101346.16
2018-06-04T12:50:33.917Z,101344.14
2018-06-04T12:53:01.964Z,101342.42
2018-06-04T12:55:29.421Z,101339.95
2018-06-04T12:57:56.843Z,101339.17
2018-06-04T13:00:24.245Z,101336.69
2018-06-04T13:02:51.649Z,101337.09
2018-06-04T13:05:19.025Z,101335.27
2018-06-04T13:07:46.733Z,101329.22
2018-06-04T13:10:14.278Z,101337.56
2018-06-04T13:12:42.046Z,101331.17
2018-06-04T13:15:09.501Z,101335.03
2018-06-04T13:17:36.916Z,101333.38
2018-06-04T13:20:04.425Z,101334.84
2018-06-04T13:22:32.070Z,101327.61
2018-06-04T13:24:59.450Z,101324.56
2018-06-04T13:27:27.233Z,101324.70
2018-06-04T13:29:54.842Z,101319.40
2018-06-04T13:32:23.108Z,101318.46
2018-06-04T13:34:58.206Z,101319.56
2018-06-04T13:37:26.125Z,101315.16
2018-06-04T13:39:53.639Z,101312.91
2018-06-04T13:42:21.140Z,101319.22
2018-06-04T13:44:48.896Z,101314.84
2018-06-04T13:47:16.529Z,101319.90
2018-06-04T13:49:44.092Z,101316.69
2018-06-04T13:52:11.730Z,101314.96
2018-06-04T13:54:39.175Z,101309.91
2018-06-04T13:57:06.629Z,101311.66
2018-06-04T13:59:34.422Z,101307.59
2018-06-04T14:02:01.965Z,101306.56
2018-06-04T14:04:29.412Z,101306.80
2018-06-04T14:06:56.876Z,101309.67
2018-06-04T14:09:24.452Z,101306.97
2018-06-04T14:11:52.093Z,101300.22
2018-06-04T14:14:19.991Z,101301.25
2018-06-04T14:16:47.609Z,101301.09
2018-06-04T14:19:15.115Z,101294.75
2018-06-04T14:21:42.482Z,101297.67
2018-06-04T14:24:10.078Z,101291.70
2018-06-04T14:26:37.467Z,101277.76
2018-06-04T14:29:04.845Z,101287.97
2018-06-04T14:31:32.625Z,101282.95
2018-06-04T14:34:00.166Z,101278.09
2018-06-04T14:36:27.884Z,101280.94
2018-06-04T14:38:55.841Z,101277.91
2018-06-04T14:41:23.200Z,101279.58
2018-06-04T14:43:50.653Z,101278.48
2018-06-04T14:46:18.103Z,101276.31
2018-06-04T14:48:45.505Z,101278.25
2018-06-04T14:51:13.277Z,101272.82
2018-06-04T14:53:40.657Z,101271.37
2018-06-04T14:56:08.776Z,101282.26
2018-06-04T14:58:36.456Z,101278.32
2018-06-04T15:01:03.972Z,101279.50
2018-06-04T15:03:31.449Z,101277.09
2018-06-04T15:05:58.861Z,101274.67
2018-06-04T15:08:26.269Z,101277.17
2018-06-04T15:10:54.005Z,101276.52
2018-06-04T15:13:22.130Z,101264.35
2018-06-04T15:15:49.588Z,101258.59
2018-06-04T15:18:18.201Z,101263.86
2018-06-04T15:20:45.853Z,101256.70
2018-06-04T15:23:13.592Z,101254.77
2018-06-04T15:25:41.114Z,101248.16
2018-06-04T15:28:08.787Z,101239.58
2018-06-04T15:30:36.212Z,101241.27
2018-06-04T15:33:03.652Z,101237.41
2018-06-04T15:35:31.247Z,101238.16
2018-06-04T15:37:58.945Z,101243.41
2018-06-04T15:40:26.356Z,101231.47
2018-06-04T15:42:53.989Z,101237.88
2018-06-04T15:45:21.748Z,101234.52
2018-06-04T15:47:49.298Z,101236.05
2018-06-04T15:50:16.757Z,101235.02
2018-06-04T15:52:44.117Z,101243.11
2018-06-04T15:55:11.586Z,101239.68
2018-06-04T15:57:39.493Z,101242.45
2018-06-04T16:00:06.993Z,101234.25
2018-06-04T16:02:35.335Z,101241.15
2018-06-04T16:05:02.767Z,101235.51
2018-06-04T16:07:30.368Z,101226.98
2018-06-04T16:09:57.822Z,101221.69
2018-06-04T16:12:25.369Z,101215.66
2018-06-04T16:14:52.927Z,101216.36
2018-06-04T16:17:20.522Z,101215.98
2018-06-04T16:19:48.023Z,101208.52
2018-06-04T16:22:15.453Z,101212.39
2018-06-04T16:24:43.192Z,101219.80
2018-06-04T16:27:10.537Z,101204.09
2018-06-04T16:29:37.965Z,101209.30
2018-06-04T16:32:05.371Z,101212.86
2018-06-04T16:34:33.150Z,101207.13
2018-06-04T16:37:00.955Z,101216.93
2018-06-04T16:39:28.661Z,101207.50
2018-06-04T16:41:56.157Z,101211.71
2018-06-04T16:44:23.603Z,101206.64
2018-06-04T16:46:51.008Z,101201.70
2018-06-04T16:49:18.428Z,101193.52
2018-06-04T16:51:45.858Z,101195.52
2018-06-04T16:54:13.218Z,101190.81
2018-06-04T16:56:40.629Z,101189.03
2018-06-04T16:59:08.244Z,101190.83
2018-06-04T17:01:35.615Z,101186.01
2018-06-04T17:04:03.073Z,101177.65
2018-06-04T17:06:30.729Z,101183.80
2018-06-04T17:08:58.214Z,101172.73
2018-06-04T17:11:26.070Z,101184.00
2018-06-04T17:13:53.613Z,101183.77
2018-06-04T17:16:21.020Z,101179.23
2018-06-04T17:18:48.406Z,101183.36
2018-06-04T17:21:15.799Z,101187.13
2018-06-04T17:23:43.448Z,101181.69
2018-06-04T17:26:10.847Z,101184.65
2018-06-04T17:28:38.837Z,101178.05
2018-06-04T17:31:06.323Z,101177.97
2018-06-04T17:33:33.993Z,101172.61
2018-06-04T17:36:01.639Z,101171.45
2018-06-04T17:38:29.049Z,101176.13
2018-06-04T17:40:56.503Z,101174.89
2018-06-04T17:43:23.967Z,101175.50
2018-06-04T17:45:51.410Z,101173.61
2018-06-04T17:48:18.824Z,101179.75
2018-06-04T17:50:46.304Z,101178.78
2018-06-04T17:53:13.700Z,101175.45
2018-06-04T17:55:41.363Z,101173.83
2018-06-04T17:58:08.947Z,101177.31
2018-06-04T18:00:36.397Z,101175.66
2018-06-04T18:03:04.009Z,101175.76
2018-06-04T18:05:31.355Z,101174.17
2018-06-04T18:07:58.801Z,101174.48
2018-06-04T18:10:26.267Z,101176.80
2018-06-04T18:12:53.744Z,101172.81
2018-06-04T18:15:21.251Z,101173.08
2018-06-04T18:17:48.661Z,101175.38
2018-06-04T18:20:16.050Z,101179.87
2018-06-04T18:22:43.585Z,101176.59
2018-06-04T18:25:11.073Z,101182.67
2018-06-04T18:27:38.646Z,101180.30
2018-06-04T18:30:06.101Z,101183.81
2018-06-04T18:32:33.622Z,101182.06
2018-06-04T18:35:01.038Z,101187.14
2018-06-04T18:37:28.513Z,101190.62
2018-06-04T18:39:55.942Z,101186.80
2018-06-04T18:42:23.484Z,101188.06
2018-06-04T18:44:50.926Z,101186.28
2018-06-04T18:47:18.542Z,101193.64
2018-06-04T18:49:46.006Z,101191.69
2018-06-04T18:52:13.369Z,101192.84
2018-06-04T18:54:40.766Z,101193.33
2018-06-04T18:57:08.284Z,101191.40
2018-06-04T18:59:35.830Z,101201.47
2018-06-04T19:02:03.190Z,101194.90
2018-06-04T19:04:31.247Z,101199.08
2018-06-04T19:06:58.697Z,101204.22
2018-06-04T19:09:26.106Z,101206.31
2018-06-04T19:11:53.632Z,101208.75
2018-06-04T19:14:21.150Z,101209.51
2018-06-04T19:16:48.576Z,101212.80
2018-06-04T19:19:16.005Z,101217.66
2018-06-04T19:21:43.429Z,101219.20
2018-06-04T19:24:10.813Z,101215.23
2018-06-04T19:26:38.223Z,101224.41
2018-06-04T19:29:05.754Z,101228.47
2018-06-04T19:31:33.183Z,101220.77
2018-06-04T19:34:00.606Z,101224.20
2018-06-04T19:36:28.024Z,101220.59
2018-06-04T19:38:55.396Z,101224.08
2018-06-04T19:41:22.778Z,101224.52
2018-06-04T19:43:50.211Z,101236.44
2018-06-04T19:46:17.616Z,101239.20
2018-06-04T19:48:45.616Z,101249.52
2018-06-04T19:51:13.104Z,101245.60
2018-06-04T19:53:40.696Z,101244.05
2018-06-04T19:56:08.116Z,101252.53
2018-06-04T19:58:35.549Z,101263.29
2018-06-04T20:01:03.122Z,101266.25
2018-06-04T20:03:30.693Z,101274.60
2018-06-04T20:05:58.094Z,101276.66
2018-06-04T20:08:25.532Z,101274.05
2018-06-04T20:10:53.177Z,101274.56
2018-06-04T20:13:20.567Z,101282.25
2018-06-04T20:15:48.018Z,101272.73
2018-06-04T20:18:15.499Z,101276.30
2018-06-04T20:20:42.895Z,101265.17
2018-06-04T20:23:10.291Z,101282.57
2018-06-04T20:25:38.354Z,101282.99
2018-06-04T20:28:05.730Z,101277.69
2018-06-04T20:30:33.167Z,101278.16
2018-06-04T20:33:00.633Z,101280.95
2018-06-04T20:35:28.213Z,101271.64
2018-06-04T20:37:55.684Z,101274.62
2018-06-04T20:40:23.350Z,101268.81
2018-06-04T20:42:51.465Z,101275.24
2018-06-04T20:45:18.860Z,101277.04
2018-06-04T20:47:46.360Z,101277.83
2018-06-04T20:50:13.749Z,101284.72
2018-06-04T20:52:41.625Z,101285.37
2018-06-04T20:55:09.061Z,101282.30
2018-06-04T20:57:36.544Z,101291.88
2018-06-04T21:00:04.211Z,101290.31
2018-06-04T21:02:31.612Z,101295.94
2018-06-04T21:04:59.000Z,101301.72
2018-06-04T21:07:26.656Z,101306.38
2018-06-04T21:09:54.141Z,101289.19
2018-06-04T21:12:22.749Z,101308.37
2018-06-04T21:14:50.378Z,101311.21
2018-06-04T21:17:17.949Z,101315.02
2018-06-04T21:19:45.350Z,101317.78
2018-06-04T21:22:12.766Z,101316.39
2018-06-04T21:24:40.601Z,101317.50
2018-06-04T21:27:08.117Z,101323.41
2018-06-04T21:29:35.523Z,101324.08
2018-06-04T21:32:02.939Z,101322.03
2018-06-04T21:34:30.405Z,101327.43
2018-06-04T21:36:57.904Z,101325.84
2018-06-04T21:39:25.265Z,101331.09
2018-06-04T21:41:52.865Z,101332.69
2018-06-04T21:44:20.323Z,101338.83
2018-06-04T21:46:47.695Z,101333.48
2018-06-04T21:49:19.114Z,101329.42
2018-06-04T21:51:46.535Z,101333.53
2018-06-04T21:54:13.906Z,101332.00
2018-06-04T21:56:41.408Z,101319.31
2018-06-04T21:59:08.817Z,101323.83
2018-06-04T22:01:36.297Z,101333.94
2018-06-04T22:04:04.339Z,101343.64
2018-06-04T22:06:31.710Z,101338.19
2018-06-04T22:08:59.072Z,101331.52
2018-06-04T22:11:27.266Z,101333.00
2018-06-04T22:13:54.674Z,101333.89
2018-06-04T22:16:22.131Z,101333.98
2018-06-04T22:18:50.462Z,101335.28
2018-06-04T22:21:17.822Z,101334.77
2018-06-04T22:23:45.282Z,101334.70
2018-06-04T22:26:12.677Z,101336.83
2018-06-04T22:28:40.168Z,101337.52
2018-06-04T22:31:07.657Z,101337.53
2018-06-04T22:33:35.006Z,101337.53
2018-06-04T22:36:02.438Z,101337.16
2018-06-04T22:38:29.866Z,101337.66
2018-06-04T22:40:57.253Z,101338.74
2018-06-04T22:43:24.785Z,101336.33
2018-06-04T22:45:52.178Z,101338.23
2018-06-04T22:48:19.555Z,101339.02
2018-06-04T22:50:46.953Z,101333.42
2018-06-04T22:53:14.321Z,101335.44
2018-06-04T22:55:42.377Z,101328.69
2018-06-04T22:58:09.744Z,101330.32
2018-06-04T23:00:37.190Z,101328.69
2018-06-04T23:03:04.560Z,101337.95
2018-06-04T23:05:31.982Z,101325.19
2018-06-04T23:07:59.338Z,101323.28
2018-06-04T23:10:26.704Z,101315.36
2018-06-04T23:12:54.046Z,101314.34
2018-06-04T23:15:21.495Z,101316.94
2018-06-04T23:17:48.844Z,101316.98
2018-06-04T23:20:16.237Z,101315.22
2018-06-04T23:22:50.292Z,101314.20
2018-06-04T23:25:17.686Z,101309.86
2018-06-04T23:27:45.379Z,101309.88
2018-06-04T23:30:12.782Z,101306.84
2018-06-04T23:32:40.145Z,101302.38
2018-06-04T23:35:07.554Z,101294.27
2018-06-04T23:37:34.953Z,101298.37
2018-06-04T23:40:02.308Z,101296.66
2018-06-04T23:42:29.793Z,101289.67
2018-06-04T23:44:57.145Z,101296.82
2018-06-04T23:47:24.559Z,101287.30
2018-06-04T23:49:52.052Z,101285.61
2018-06-04T23:52:19.451Z,101287.19
2018-06-04T23:54:47.125Z,101291.01
2018-06-04T23:57:14.569Z,101284.95
2018-06-04T23:59:43.005Z,101293.63
